createdAt,value
2023-05-04T00:01:11.633Z,5.62
2023-05-04T00:03:38.839Z,5.58
2023-05-04T00:06:05.925Z,4.29
2023-05-04T00:08:32.649Z,5.20
2023-05-04T00:11:05.087Z,5.52
2023-05-04T00:13:31.855Z,5.51
2023-05-04T00:15:58.797Z,5.50
2023-05-04T00:18:26.696Z,5.16
2023-05-04T00:20:53.481Z,5.47
2023-05-04T00:23:20.256Z,5.44
2023-05-04T00:25:47.085Z,5.42
2023-05-04T00:28:13.836Z,4.52
2023-05-04T00:30:40.602Z,5.31
2023-05-04T00:33:07.631Z,4.70
2023-05-04T00:35:34.595Z,5.00
2023-05-04T00:38:03.959Z,4.48
2023-05-04T00:40:30.950Z,5.24
2023-05-04T00:42:57.717Z,4.18
2023-05-04T00:45:26.483Z,3.88
2023-05-04T00:47:53.969Z,4.04
2023-05-04T00:50:21.183Z,5.21
2023-05-04T00:52:49.204Z,5.17
2023-05-04T00:55:16.070Z,4.05
2023-05-04T00:57:43.019Z,4.38
2023-05-04T01:00:13.253Z,5.17
2023-05-04T01:02:42.154Z,3.66
2023-05-04T01:05:10.486Z,4.36
2023-05-04T01:07:56.316Z,3.41
2023-05-04T01:10:30.360Z,4.94
2023-05-04T01:13:04.273Z,4.88
2023-05-04T01:15:35.524Z,4.83
2023-05-04T01:18:02.893Z,4.86
2023-05-04T01:20:29.909Z,4.71
2023-05-04T01:22:57.138Z,4.81
2023-05-04T01:25:29.412Z,4.80
2023-05-04T01:28:06.541Z,4.18
2023-05-04T01:30:43.420Z,4.76
2023-05-04T01:33:10.936Z,4.69
2023-05-04T01:35:38.336Z,3.95
2023-05-04T01:38:07.545Z,4.15
2023-05-04T01:40:36.865Z,4.49
2023-05-04T01:43:03.648Z,4.52
2023-05-04T01:45:35.572Z,4.54
2023-05-04T01:48:06.616Z,4.25
2023-05-04T01:50:33.643Z,3.46
2023-05-04T01:53:00.380Z,3.91
2023-05-04T01:55:27.147Z,3.85
2023-05-04T01:57:53.916Z,4.51
2023-05-04T02:00:20.654Z,3.28
2023-05-04T02:02:47.474Z,3.82
2023-05-04T02:05:18.033Z,4.53
2023-05-04T02:07:44.824Z,4.53
2023-05-04T02:10:14.052Z,4.35
2023-05-04T02:12:43.100Z,3.55
2023-05-04T02:15:13.268Z,3.94
2023-05-04T02:17:42.454Z,4.37
2023-05-04T02:20:10.268Z,2.86
2023-05-04T02:22:37.012Z,4.32
2023-05-04T02:25:03.914Z,4.35
2023-05-04T02:27:30.775Z,3.59
2023-05-04T02:30:00.534Z,4.20
2023-05-04T02:32:27.393Z,3.79
2023-05-04T02:34:54.292Z,3.31
2023-05-04T02:37:23.904Z,4.35
2023-05-04T02:39:50.740Z,3.65
2023-05-04T02:42:17.651Z,4.38
2023-05-04T02:44:44.531Z,4.19
2023-05-04T02:47:14.900Z,4.40
2023-05-04T02:49:41.552Z,4.43
2023-05-04T02:52:08.378Z,3.95
2023-05-04T02:54:35.285Z,3.81
2023-05-04T02:57:02.111Z,4.34
2023-05-04T02:59:28.831Z,4.32
2023-05-04T03:01:55.662Z,4.33
2023-05-04T03:04:22.542Z,4.35
2023-05-04T03:06:49.316Z,4.40
2023-05-04T03:09:16.282Z,3.22
2023-05-04T03:11:43.603Z,4.47
2023-05-04T03:14:10.377Z,4.49
2023-05-04T03:16:37.175Z,4.56
2023-05-04T03:19:04.203Z,4.57
2023-05-04T03:21:31.006Z,4.24
2023-05-04T03:23:59.056Z,2.58
2023-05-04T03:26:25.923Z,4.54
2023-05-04T03:28:53.160Z,4.50
2023-05-04T03:31:20.026Z,4.11
2023-05-04T03:33:49.837Z,4.59
2023-05-04T03:36:17.040Z,4.38
2023-05-04T03:38:43.884Z,4.51
2023-05-04T03:41:11.234Z,4.39
2023-05-04T03:43:39.376Z,3.67
2023-05-04T03:46:06.295Z,5.18
2023-05-04T03:48:33.198Z,5.23
2023-05-04T03:51:00.011Z,5.07
2023-05-04T03:53:26.777Z,5.10
2023-05-04T03:55:53.582Z,4.56
2023-05-04T03:58:21.719Z,4.74
2023-05-04T04:00:48.667Z,5.36
2023-05-04T04:03:15.844Z,5.49
2023-05-04T04:05:42.752Z,5.57
2023-05-04T04:08:09.753Z,4.66
2023-05-04T04:10:36.601Z,5.46
2023-05-04T04:13:03.604Z,5.84
2023-05-04T04:15:30.474Z,4.56
2023-05-04T04:18:00.403Z,6.07
2023-05-04T04:20:27.157Z,6.17
2023-05-04T04:22:54.064Z,6.27
2023-05-04T04:25:21.376Z,5.66
2023-05-04T04:27:48.152Z,6.14
2023-05-04T04:30:15.232Z,6.54
2023-05-04T04:32:42.220Z,6.30
2023-05-04T04:35:09.357Z,6.54
2023-05-04T04:37:39.152Z,6.82
2023-05-04T04:40:07.741Z,6.82
2023-05-04T04:42:34.815Z,7.11
2023-05-04T04:45:04.854Z,7.27
2023-05-04T04:47:32.716Z,7.18
2023-05-04T04:49:59.788Z,7.56
2023-05-04T04:52:26.621Z,7.05
2023-05-04T04:54:53.488Z,7.26
2023-05-04T04:57:20.340Z,7.95
2023-05-04T04:59:47.224Z,7.50
2023-05-04T05:02:14.552Z,8.09
2023-05-04T05:04:41.595Z,8.13
2023-05-04T05:07:09.001Z,7.61
2023-05-04T05:09:36.099Z,8.36
2023-05-04T05:12:03.260Z,8.49
2023-05-04T05:14:31.783Z,8.19
2023-05-04T05:17:05.592Z,8.61
2023-05-04T05:19:37.116Z,8.76
2023-05-04T05:22:06.931Z,8.53
2023-05-04T05:24:38.652Z,7.92
2023-05-04T05:27:05.478Z,9.02
2023-05-04T05:29:32.405Z,9.40
2023-05-04T05:31:59.166Z,8.94
2023-05-04T05:34:27.995Z,9.68
2023-05-04T05:36:54.684Z,9.91
2023-05-04T05:39:21.458Z,9.87
2023-05-04T05:41:48.196Z,9.98
2023-05-04T05:44:14.966Z,10.52
2023-05-04T05:46:41.896Z,10.38
2023-05-04T05:49:08.838Z,10.64
2023-05-04T05:51:35.562Z,10.09
2023-05-04T05:54:02.465Z,10.78
2023-05-04T05:56:29.292Z,10.90
2023-05-04T05:58:56.430Z,11.07
2023-05-04T06:01:24.197Z,11.19
2023-05-04T06:03:54.228Z,11.32
2023-05-04T06:06:21.176Z,11.49
2023-05-04T06:08:47.984Z,11.28
2023-05-04T06:11:14.961Z,11.69
2023-05-04T06:13:42.948Z,11.45
2023-05-04T06:16:09.798Z,11.89
2023-05-04T06:18:36.614Z,11.40
2023-05-04T06:21:04.054Z,11.95
2023-05-04T06:23:31.324Z,12.04
2023-05-04T06:25:58.508Z,11.85
2023-05-04T06:28:25.369Z,12.19
2023-05-04T06:30:55.673Z,11.96
2023-05-04T06:33:22.453Z,12.34
2023-05-04T06:35:50.707Z,12.04
2023-05-04T06:38:22.954Z,10.95
2023-05-04T06:40:49.961Z,11.94
2023-05-04T06:43:16.790Z,11.91
2023-05-04T06:45:46.819Z,12.02
2023-05-04T06:48:15.708Z,12.07
2023-05-04T06:50:42.535Z,12.31
2023-05-04T06:53:11.860Z,12.76
2023-05-04T06:55:39.246Z,12.77
2023-05-04T06:58:06.234Z,12.75
2023-05-04T07:00:33.107Z,12.93
2023-05-04T07:03:00.044Z,13.00
2023-05-04T07:05:27.358Z,11.83
2023-05-04T07:07:54.154Z,13.08
2023-05-04T07:10:20.930Z,13.51
2023-05-04T07:12:49.575Z,13.84
2023-05-04T07:15:16.462Z,13.68
2023-05-04T07:17:43.361Z,13.99
2023-05-04T07:20:11.298Z,13.90
2023-05-04T07:22:38.109Z,14.06
2023-05-04T07:25:05.582Z,13.20
2023-05-04T07:27:32.633Z,13.79
2023-05-04T07:29:59.449Z,13.76
2023-05-04T07:32:26.341Z,13.40
2023-05-04T07:34:55.232Z,12.92
2023-05-04T07:37:22.078Z,12.81
2023-05-04T07:39:48.994Z,12.72
2023-05-04T07:42:16.110Z,12.76
2023-05-04T07:44:46.126Z,12.44
2023-05-04T07:47:13.007Z,12.32
2023-05-04T07:49:39.902Z,12.33
2023-05-04T07:52:06.668Z,12.87
2023-05-04T07:54:33.427Z,12.74
2023-05-04T07:57:04.978Z,11.36
2023-05-04T07:59:31.872Z,12.80
2023-05-04T08:01:58.810Z,12.41
2023-05-04T08:04:26.089Z,12.58
2023-05-04T08:06:52.900Z,12.40
2023-05-04T08:09:20.049Z,11.89
2023-05-04T08:11:49.226Z,12.91
2023-05-04T08:14:16.186Z,13.07
2023-05-04T08:16:42.835Z,12.76
2023-05-04T08:19:10.021Z,13.62
2023-05-04T08:21:40.457Z,13.86
2023-05-04T08:24:08.112Z,13.54
2023-05-04T08:26:37.609Z,13.56
2023-05-04T08:29:10.340Z,13.81
2023-05-04T08:31:37.511Z,13.88
2023-05-04T08:34:07.343Z,13.79
2023-05-04T08:36:35.088Z,13.47
2023-05-04T08:39:02.034Z,13.64
2023-05-04T08:41:29.474Z,13.82
2023-05-04T08:43:59.764Z,13.85
2023-05-04T08:46:30.870Z,13.20
2023-05-04T08:48:58.146Z,13.23
2023-05-04T08:51:28.525Z,13.61
2023-05-04T08:53:56.392Z,13.40
2023-05-04T08:56:24.877Z,13.11
2023-05-04T08:58:58.058Z,13.45
2023-05-04T09:01:25.131Z,13.17
2023-05-04T09:03:53.312Z,12.14
2023-05-04T09:06:20.723Z,12.41
2023-05-04T09:08:47.565Z,12.54
2023-05-04T09:11:14.530Z,12.71
2023-05-04T09:13:42.929Z,12.75
2023-05-04T09:16:09.930Z,12.81
2023-05-04T09:18:37.858Z,12.68
2023-05-04T09:21:05.193Z,12.39
2023-05-04T09:23:32.821Z,12.61
2023-05-04T09:26:01.953Z,12.76
2023-05-04T09:28:39.533Z,13.02
2023-05-04T09:31:07.861Z,13.29
2023-05-04T09:33:35.069Z,13.11
2023-05-04T09:36:34.362Z,13.37
2023-05-04T09:39:11.829Z,12.96
2023-05-04T09:41:39.214Z,13.43
2023-05-04T09:44:06.675Z,13.71
2023-05-04T09:46:35.085Z,12.86
2023-05-04T09:49:03.310Z,13.49
2023-05-04T09:51:30.493Z,13.91
2023-05-04T09:54:02.509Z,14.12
2023-05-04T09:56:29.198Z,14.53
2023-05-04T09:58:59.215Z,13.61
2023-05-04T10:01:29.773Z,14.63
2023-05-04T10:03:57.168Z,15.01
2023-05-04T10:06:24.710Z,15.38
2023-05-04T10:08:56.006Z,15.77
2023-05-04T10:11:26.325Z,16.12
2023-05-04T10:13:58.621Z,16.11
2023-05-04T10:16:41.507Z,17.02
2023-05-04T10:19:42.522Z,18.18
2023-05-04T10:22:23.696Z,18.43
2023-05-04T10:25:00.541Z,18.29
2023-05-04T10:27:44.905Z,17.75
2023-05-04T10:30:17.005Z,17.38
2023-05-04T10:32:44.208Z,17.04
2023-05-04T10:35:11.241Z,17.41
2023-05-04T10:37:40.930Z,17.47
2023-05-04T10:40:10.964Z,17.39
2023-05-04T10:42:42.917Z,17.30
2023-05-04T10:45:13.706Z,16.61
2023-05-04T10:47:43.631Z,17.53
2023-05-04T10:50:14.402Z,19.16
2023-05-04T10:52:52.061Z,19.94
2023-05-04T10:55:24.926Z,20.18
2023-05-04T10:57:56.456Z,19.82
2023-05-04T11:00:35.279Z,20.92
2023-05-04T11:03:07.297Z,22.51
2023-05-04T11:05:47.604Z,23.40
2023-05-04T11:08:22.600Z,21.74
2023-05-04T11:11:01.250Z,21.62
2023-05-04T11:13:34.074Z,19.48
2023-05-04T11:16:01.327Z,20.52
2023-05-04T11:18:31.190Z,20.55
2023-05-04T11:20:58.773Z,22.36
2023-05-04T11:23:26.281Z,23.27
2023-05-04T11:25:53.655Z,25.76
2023-05-04T11:28:20.615Z,27.63
2023-05-04T11:30:50.405Z,26.37
2023-05-04T11:33:19.889Z,25.26
2023-05-04T11:35:46.831Z,25.82
2023-05-04T11:38:20.226Z,27.90
2023-05-04T11:40:50.294Z,28.59
2023-05-04T11:43:20.435Z,24.89
2023-05-04T11:45:48.517Z,22.05
2023-05-04T11:48:16.628Z,20.69
2023-05-04T11:50:46.762Z,19.36
2023-05-04T11:53:14.754Z,17.22
2023-05-04T11:55:42.842Z,17.09
2023-05-04T11:58:11.526Z,17.07
2023-05-04T12:00:46.636Z,16.49
2023-05-04T12:03:18.886Z,16.36
2023-05-04T12:05:53.934Z,16.31
2023-05-04T12:08:30.383Z,16.08
2023-05-04T12:11:16.945Z,16.50
2023-05-04T12:13:45.644Z,18.00
2023-05-04T12:16:14.521Z,22.63
2023-05-04T12:18:42.380Z,28.80
2023-05-04T12:21:16.563Z,28.93
2023-05-04T12:23:45.803Z,27.71
2023-05-04T12:26:14.105Z,25.38
2023-05-04T12:28:43.000Z,25.13
2023-05-04T12:31:12.219Z,27.02
2023-05-04T12:33:41.886Z,29.08
2023-05-04T12:36:10.204Z,29.43
2023-05-04T12:38:39.794Z,26.41
2023-05-04T12:41:12.145Z,25.17
2023-05-04T12:43:39.013Z,28.19
2023-05-04T12:46:06.174Z,29.63
2023-05-04T12:48:33.312Z,29.16
2023-05-04T12:51:01.463Z,28.40
2023-05-04T12:53:34.744Z,28.18
2023-05-04T12:56:02.313Z,26.64
2023-05-04T12:58:29.498Z,25.08
2023-05-04T13:00:57.836Z,23.38
2023-05-04T13:03:24.795Z,21.10
2023-05-04T13:05:51.916Z,20.98
2023-05-04T13:08:22.500Z,20.11
2023-05-04T13:10:53.308Z,18.95
2023-05-04T13:13:22.994Z,19.65
2023-05-04T13:15:51.076Z,19.07
2023-05-04T13:18:23.796Z,18.69
2023-05-04T13:20:52.004Z,17.96
2023-05-04T13:23:24.458Z,16.78
2023-05-04T13:25:51.772Z,16.56
2023-05-04T13:28:19.179Z,16.38
2023-05-04T13:30:48.888Z,16.75
2023-05-04T13:33:28.076Z,19.05
2023-05-04T13:35:58.166Z,21.70
2023-05-04T13:38:25.587Z,22.36
2023-05-04T13:40:52.649Z,20.39
2023-05-04T13:43:22.229Z,19.30
2023-05-04T13:45:52.397Z,18.73
2023-05-04T13:48:19.311Z,19.19
2023-05-04T13:50:46.080Z,19.81
2023-05-04T13:53:12.921Z,19.91
2023-05-04T13:55:42.728Z,19.49
2023-05-04T13:58:12.293Z,18.66
2023-05-04T14:00:39.210Z,17.58
2023-05-04T14:03:06.126Z,18.75
2023-05-04T14:05:35.750Z,19.11
2023-05-04T14:08:03.053Z,19.29
2023-05-04T14:10:37.264Z,19.23
2023-05-04T14:13:06.139Z,18.87
2023-05-04T14:15:33.165Z,18.48
2023-05-04T14:17:59.977Z,17.24
2023-05-04T14:20:26.879Z,17.10
2023-05-04T14:22:53.694Z,15.34
2023-05-04T14:25:22.450Z,15.94
2023-05-04T14:27:52.656Z,15.20
2023-05-04T14:30:19.468Z,14.32
2023-05-04T14:32:46.400Z,15.36
2023-05-04T14:35:17.981Z,14.85
2023-05-04T14:37:47.908Z,13.44
2023-05-04T14:40:15.192Z,14.22
2023-05-04T14:42:41.995Z,14.37
2023-05-04T14:45:09.526Z,14.03
2023-05-04T14:47:36.753Z,13.75
2023-05-04T14:50:04.251Z,13.13
2023-05-04T14:52:34.068Z,14.22
2023-05-04T14:55:00.968Z,14.20
2023-05-04T14:57:27.790Z,13.87
2023-05-04T14:59:54.888Z,14.02
2023-05-04T15:02:24.364Z,13.93
2023-05-04T15:04:54.206Z,13.46
2023-05-04T15:07:27.318Z,13.74
2023-05-04T15:09:59.098Z,13.41
2023-05-04T15:12:26.428Z,12.99
2023-05-04T15:14:53.214Z,13.78
2023-05-04T15:17:20.299Z,13.63
2023-05-04T15:19:47.113Z,13.61
2023-05-04T15:22:17.024Z,13.05
2023-05-04T15:24:46.700Z,13.44
2023-05-04T15:27:15.785Z,13.79
2023-05-04T15:29:42.554Z,13.68
2023-05-04T15:32:14.777Z,13.80
2023-05-04T15:35:00.893Z,13.27
2023-05-04T15:37:28.723Z,13.85
2023-05-04T15:39:56.045Z,13.75
2023-05-04T15:42:22.974Z,13.82
2023-05-04T15:44:49.820Z,14.24
2023-05-04T15:47:16.898Z,14.35
2023-05-04T15:49:46.119Z,14.48
2023-05-04T15:52:12.921Z,14.41
2023-05-04T15:54:47.305Z,14.59
2023-05-04T15:57:15.209Z,14.60
2023-05-04T15:59:43.932Z,14.57
2023-05-04T16:02:13.885Z,14.81
2023-05-04T16:04:42.514Z,14.69
2023-05-04T16:07:19.588Z,14.15
2023-05-04T16:09:51.096Z,14.58
2023-05-04T16:12:23.193Z,14.51
2023-05-04T16:14:50.050Z,13.96
2023-05-04T16:17:16.907Z,14.17
2023-05-04T16:19:48.841Z,13.40
2023-05-04T16:22:15.902Z,13.91
2023-05-04T16:24:44.955Z,13.85
2023-05-04T16:27:13.045Z,12.59
2023-05-04T16:29:43.031Z,13.57
2023-05-04T16:32:13.640Z,13.39
2023-05-04T16:34:40.545Z,13.51
2023-05-04T16:37:08.964Z,12.18
2023-05-04T16:39:38.045Z,13.39
2023-05-04T16:42:07.552Z,13.29
2023-05-04T16:44:37.119Z,13.51
2023-05-04T16:47:09.969Z,13.74
2023-05-04T16:49:36.920Z,13.55
2023-05-04T16:52:09.243Z,13.71
2023-05-04T16:54:38.686Z,13.23
2023-05-04T16:57:05.691Z,14.06
2023-05-04T16:59:32.682Z,14.10
2023-05-04T17:01:59.494Z,13.96
2023-05-04T17:04:27.603Z,13.86
2023-05-04T17:06:54.714Z,13.74
2023-05-04T17:09:21.552Z,13.70
2023-05-04T17:11:51.374Z,13.65
2023-05-04T17:14:18.356Z,13.64
2023-05-04T17:16:45.576Z,13.39
2023-05-04T17:19:12.940Z,13.43
2023-05-04T17:21:40.016Z,13.25
2023-05-04T17:24:09.363Z,12.93
2023-05-04T17:26:36.567Z,12.15
2023-05-04T17:29:08.148Z,12.55
2023-05-04T17:31:35.074Z,13.11
2023-05-04T17:34:02.194Z,12.84
2023-05-04T17:36:35.293Z,12.68
2023-05-04T17:39:02.538Z,12.74
2023-05-04T17:41:29.510Z,12.64
2023-05-04T17:43:56.855Z,12.39
2023-05-04T17:46:25.047Z,12.40
2023-05-04T17:48:53.165Z,12.26
2023-05-04T17:51:20.647Z,12.13
2023-05-04T17:53:50.760Z,12.09
2023-05-04T17:56:21.922Z,11.98
2023-05-04T17:58:49.039Z,11.14
2023-05-04T18:01:16.747Z,11.55
2023-05-04T18:03:43.986Z,11.18
2023-05-04T18:06:11.070Z,11.75
2023-05-04T18:08:40.949Z,11.69
2023-05-04T18:11:11.222Z,11.26
2023-05-04T18:13:43.834Z,11.53
2023-05-04T18:16:13.738Z,10.58
2023-05-04T18:18:46.494Z,11.38
2023-05-04T18:21:13.471Z,11.34
2023-05-04T18:23:43.463Z,10.95
2023-05-04T18:26:23.032Z,11.20
2023-05-04T18:28:50.408Z,10.41
2023-05-04T18:31:27.175Z,11.11
2023-05-04T18:33:57.205Z,11.08
2023-05-04T18:36:24.081Z,10.72
2023-05-04T18:38:53.314Z,10.99
2023-05-04T18:41:20.870Z,10.96
2023-05-04T18:43:52.949Z,10.48
2023-05-04T18:46:19.821Z,10.57
2023-05-04T18:48:48.950Z,10.80
2023-05-04T18:51:15.695Z,10.80
2023-05-04T18:53:47.009Z,10.25
2023-05-04T18:56:15.586Z,9.89
2023-05-04T18:58:45.470Z,10.75
2023-05-04T19:01:17.121Z,10.74
2023-05-04T19:03:46.353Z,10.59
2023-05-04T19:06:13.386Z,8.79
2023-05-04T19:08:42.396Z,10.47
2023-05-04T19:11:09.245Z,10.54
2023-05-04T19:13:36.288Z,10.52
2023-05-04T19:16:03.342Z,10.57
2023-05-04T19:18:30.086Z,9.70
2023-05-04T19:20:56.863Z,9.41
2023-05-04T19:23:26.453Z,10.12
2023-05-04T19:25:53.448Z,9.84
2023-05-04T19:28:20.197Z,9.02
2023-05-04T19:30:47.092Z,10.37
2023-05-04T19:33:16.748Z,10.28
2023-05-04T19:35:48.819Z,10.17
2023-05-04T19:38:16.165Z,9.79
2023-05-04T19:40:43.218Z,10.11
2023-05-04T19:43:10.303Z,9.73
2023-05-04T19:45:37.308Z,10.05
2023-05-04T19:48:05.959Z,9.07
2023-05-04T19:50:32.853Z,9.25
2023-05-04T19:52:59.754Z,9.75
2023-05-04T19:55:26.916Z,9.74
2023-05-04T19:57:53.891Z,9.72
2023-05-04T20:00:23.329Z,9.21
2023-05-04T20:02:50.693Z,9.58
2023-05-04T20:05:21.842Z,9.72
2023-05-04T20:07:48.857Z,9.47
2023-05-04T20:10:15.677Z,9.62
2023-05-04T20:12:42.872Z,9.52
2023-05-04T20:15:10.622Z,8.91
2023-05-04T20:17:39.260Z,8.09
2023-05-04T20:20:06.883Z,9.33
2023-05-04T20:22:33.884Z,9.28
2023-05-04T20:25:00.909Z,9.25
2023-05-04T20:27:27.935Z,8.30
2023-05-04T20:29:54.932Z,8.64
2023-05-04T20:32:21.844Z,9.17
2023-05-04T20:34:48.606Z,9.11
2023-05-04T20:37:15.508Z,8.89
2023-05-04T20:39:42.211Z,8.57
2023-05-04T20:42:09.012Z,8.73
2023-05-04T20:44:38.411Z,8.87
2023-05-04T20:47:07.558Z,8.85
2023-05-04T20:49:37.343Z,8.66
2023-05-04T20:52:04.980Z,7.68
2023-05-04T20:54:31.694Z,8.29
2023-05-04T20:56:58.477Z,8.49
2023-05-04T20:59:25.456Z,8.72
2023-05-04T21:01:52.201Z,8.68
2023-05-04T21:04:18.999Z,8.42
2023-05-04T21:06:48.067Z,8.57
2023-05-04T21:09:15.533Z,8.29
2023-05-04T21:11:44.619Z,8.54
2023-05-04T21:14:11.399Z,7.71
2023-05-04T21:16:38.048Z,7.97
2023-05-04T21:19:04.867Z,8.46
2023-05-04T21:21:32.416Z,8.39
2023-05-04T21:23:59.126Z,8.40
2023-05-04T21:26:26.342Z,8.00
2023-05-04T21:28:53.013Z,7.12
2023-05-04T21:31:19.885Z,6.62
2023-05-04T21:33:46.708Z,8.28
2023-05-04T21:36:16.383Z,8.24
2023-05-04T21:38:43.618Z,8.10
2023-05-04T21:41:15.052Z,8.15
2023-05-04T21:43:43.190Z,8.11
2023-05-04T21:46:11.960Z,7.39
2023-05-04T21:48:39.551Z,7.90
2023-05-04T21:51:06.554Z,7.78
2023-05-04T21:53:33.677Z,7.13
2023-05-04T21:56:10.290Z,7.84
2023-05-04T21:58:39.791Z,7.59
2023-05-04T22:01:09.921Z,7.44
2023-05-04T22:03:36.986Z,7.69
2023-05-04T22:06:04.156Z,6.54
2023-05-04T22:08:31.319Z,7.48
2023-05-04T22:11:01.340Z,7.67
2023-05-04T22:13:28.439Z,6.58
2023-05-04T22:15:55.370Z,6.72
2023-05-04T22:18:22.342Z,7.55
2023-05-04T22:20:49.141Z,6.64
2023-05-04T22:23:18.674Z,6.78
2023-05-04T22:25:45.704Z,6.90
2023-05-04T22:28:12.456Z,6.66
2023-05-04T22:30:39.862Z,6.81
2023-05-04T22:33:06.796Z,7.07
2023-05-04T22:35:33.604Z,7.31
2023-05-04T22:38:00.425Z,6.94
2023-05-04T22:40:27.346Z,6.72
2023-05-04T22:42:54.066Z,6.81
2023-05-04T22:45:20.935Z,6.72
2023-05-04T22:47:47.765Z,7.24
2023-05-04T22:50:14.733Z,7.01
2023-05-04T22:52:41.719Z,6.38
2023-05-04T22:55:08.944Z,6.77
2023-05-04T22:57:36.002Z,7.15
2023-05-04T23:00:07.774Z,6.11
2023-05-04T23:02:35.389Z,6.79
2023-05-04T23:05:02.224Z,7.11
2023-05-04T23:07:29.296Z,7.11
2023-05-04T23:09:56.344Z,6.63
2023-05-04T23:12:23.274Z,6.19
2023-05-04T23:14:52.219Z,6.85
2023-05-04T23:17:19.230Z,6.62
2023-05-04T23:19:47.286Z,6.93
2023-05-04T23:22:17.306Z,6.89
2023-05-04T23:24:46.586Z,6.39
2023-05-04T23:27:13.338Z,6.81
2023-05-04T23:29:40.324Z,6.80
2023-05-04T23:32:07.252Z,6.74
2023-05-04T23:34:34.052Z,6.73
2023-05-04T23:37:01.129Z,6.66
2023-05-04T23:39:30.948Z,6.46
2023-05-04T23:41:58.841Z,6.45
2023-05-04T23:44:25.776Z,6.62
2023-05-04T23:46:52.583Z,6.31
2023-05-04T23:49:20.408Z,5.72
2023-05-04T23:51:47.146Z,6.58
2023-05-04T23:54:14.377Z,5.22
2023-05-04T23:56:41.088Z,5.91
2023-05-04T23:59:07.717Z,6.54
